sensor_id;sensor_type;location;lat;lon;timestamp;P1;durP1;ratioP1;P2;durP2;ratioP2
4980;SDS011;2507;50.392;7.482;2023-06-19T00:00:53;7.27;;;6.77;;
4980;SDS011;2507;50.392;7.482;2023-06-19T00:03:18;7.40;;;6.80;;
4980;SDS011;2507;50.392;7.482;2023-06-19T00:05:44;7.43;;;6.73;;
4980;SDS011;2507;50.392;7.482;2023-06-19T00:08:09;6.70;;;6.00;;
4980;SDS011;2507;50.392;7.482;2023-06-19T00:10:34;7.23;;;6.70;;
4980;SDS011;2507;50.392;7.482;2023-06-19T00:13:00;7.37;;;6.80;;
4980;SDS011;2507;50.392;7.482;2023-06-19T00:15:25;7.47;;;6.97;;
4980;SDS011;2507;50.392;7.482;2023-06-19T00:17:50;10.07;;;7.63;;
4980;SDS011;2507;50.392;7.482;2023-06-19T00:20:16;7.57;;;6.93;;
4980;SDS011;2507;50.392;7.482;2023-06-19T00:22:42;7.10;;;6.60;;
4980;SDS011;2507;50.392;7.482;2023-06-19T00:25:08;7.20;;;6.70;;
4980;SDS011;2507;50.392;7.482;2023-06-19T00:27:33;8.37;;;7.60;;
4980;SDS011;2507;50.392;7.482;2023-06-19T00:29:58;8.30;;;7.50;;
4980;SDS011;2507;50.392;7.482;2023-06-19T00:32:28;7.97;;;7.27;;
4980;SDS011;2507;50.392;7.482;2023-06-19T00:34:53;7.90;;;7.30;;
4980;SDS011;2507;50.392;7.482;2023-06-19T00:37:19;7.73;;;7.13;;
4980;SDS011;2507;50.392;7.482;2023-06-19T00:39:44;8.00;;;7.13;;
4980;SDS011;2507;50.392;7.482;2023-06-19T00:42:09;7.30;;;6.80;;
4980;SDS011;2507;50.392;7.482;2023-06-19T00:44:35;7.97;;;7.37;;
4980;SDS011;2507;50.392;7.482;2023-06-19T00:47:01;7.83;;;7.23;;
4980;SDS011;2507;50.392;7.482;2023-06-19T00:49:29;7.83;;;7.10;;
4980;SDS011;2507;50.392;7.482;2023-06-19T00:51:55;8.17;;;7.37;;
4980;SDS011;2507;50.392;7.482;2023-06-19T00:54:21;7.63;;;7.13;;
4980;SDS011;2507;50.392;7.482;2023-06-19T00:56:46;8.80;;;7.90;;
4980;SDS011;2507;50.392;7.482;2023-06-19T00:59:17;7.90;;;7.20;;
4980;SDS011;2507;50.392;7.482;2023-06-19T01:01:43;7.63;;;7.13;;
4980;SDS011;2507;50.392;7.482;2023-06-19T01:04:09;10.77;;;8.03;;
4980;SDS011;2507;50.392;7.482;2023-06-19T01:06:38;8.70;;;7.97;;
4980;SDS011;2507;50.392;7.482;2023-06-19T01:09:23;7.70;;;7.10;;
4980;SDS011;2507;50.392;7.482;2023-06-19T01:11:55;7.80;;;7.20;;
4980;SDS011;2507;50.392;7.482;2023-06-19T01:14:25;8.10;;;7.40;;
4980;SDS011;2507;50.392;7.482;2023-06-19T01:16:53;7.57;;;6.87;;
4980;SDS011;2507;50.392;7.482;2023-06-19T01:19:20;13.60;;;7.50;;
4980;SDS011;2507;50.392;7.482;2023-06-19T01:21:46;7.77;;;7.10;;
4980;SDS011;2507;50.392;7.482;2023-06-19T01:24:13;8.50;;;7.80;;
4980;SDS011;2507;50.392;7.482;2023-06-19T01:26:39;7.17;;;6.57;;
4980;SDS011;2507;50.392;7.482;2023-06-19T01:29:05;8.00;;;7.40;;
4980;SDS011;2507;50.392;7.482;2023-06-19T01:31:35;7.80;;;7.20;;
4980;SDS011;2507;50.392;7.482;2023-06-19T01:34:07;7.67;;;7.07;;
4980;SDS011;2507;50.392;7.482;2023-06-19T01:36:34;7.57;;;6.87;;
4980;SDS011;2507;50.392;7.482;2023-06-19T01:39:00;8.00;;;7.40;;
4980;SDS011;2507;50.392;7.482;2023-06-19T01:41:27;7.80;;;7.10;;
4980;SDS011;2507;50.392;7.482;2023-06-19T01:43:54;7.67;;;7.10;;
4980;SDS011;2507;50.392;7.482;2023-06-19T01:46:22;8.57;;;7.87;;
4980;SDS011;2507;50.392;7.482;2023-06-19T01:48:47;7.90;;;7.20;;
4980;SDS011;2507;50.392;7.482;2023-06-19T01:51:13;7.90;;;7.30;;
4980;SDS011;2507;50.392;7.482;2023-06-19T01:53:38;7.57;;;7.07;;
4980;SDS011;2507;50.392;7.482;2023-06-19T01:56:03;7.73;;;7.00;;
4980;SDS011;2507;50.392;7.482;2023-06-19T01:58:29;7.50;;;6.90;;
4980;SDS011;2507;50.392;7.482;2023-06-19T02:00:54;7.43;;;6.83;;
4980;SDS011;2507;50.392;7.482;2023-06-19T02:03:20;7.17;;;6.67;;
4980;SDS011;2507;50.392;7.482;2023-06-19T02:05:46;7.90;;;7.40;;
4980;SDS011;2507;50.392;7.482;2023-06-19T02:08:11;7.80;;;7.10;;
4980;SDS011;2507;50.392;7.482;2023-06-19T02:10:36;9.20;;;7.87;;
4980;SDS011;2507;50.392;7.482;2023-06-19T02:13:02;8.40;;;7.70;;
4980;SDS011;2507;50.392;7.482;2023-06-19T02:15:27;8.13;;;7.53;;
4980;SDS011;2507;50.392;7.482;2023-06-19T02:17:54;7.77;;;7.17;;
4980;SDS011;2507;50.392;7.482;2023-06-19T02:20:21;8.20;;;7.40;;
4980;SDS011;2507;50.392;7.482;2023-06-19T02:22:47;8.43;;;7.83;;
4980;SDS011;2507;50.392;7.482;2023-06-19T02:25:12;8.00;;;7.43;;
4980;SDS011;2507;50.392;7.482;2023-06-19T02:27:38;9.73;;;8.70;;
4980;SDS011;2507;50.392;7.482;2023-06-19T02:30:03;8.67;;;7.93;;
4980;SDS011;2507;50.392;7.482;2023-06-19T02:32:30;9.17;;;8.27;;
4980;SDS011;2507;50.392;7.482;2023-06-19T02:34:55;7.73;;;7.23;;
4980;SDS011;2507;50.392;7.482;2023-06-19T02:37:21;8.10;;;7.50;;
4980;SDS011;2507;50.392;7.482;2023-06-19T02:39:46;8.67;;;7.87;;
4980;SDS011;2507;50.392;7.482;2023-06-19T02:42:11;9.80;;;8.20;;
4980;SDS011;2507;50.392;7.482;2023-06-19T02:44:37;7.30;;;6.80;;
4980;SDS011;2507;50.392;7.482;2023-06-19T02:47:02;9.73;;;8.90;;
4980;SDS011;2507;50.392;7.482;2023-06-19T02:49:27;8.13;;;7.57;;
4980;SDS011;2507;50.392;7.482;2023-06-19T02:51:52;8.50;;;7.90;;
4980;SDS011;2507;50.392;7.482;2023-06-19T02:54:18;8.97;;;8.23;;
4980;SDS011;2507;50.392;7.482;2023-06-19T02:56:43;8.83;;;8.13;;
4980;SDS011;2507;50.392;7.482;2023-06-19T02:59:08;8.57;;;7.87;;
4980;SDS011;2507;50.392;7.482;2023-06-19T03:01:34;9.80;;;8.93;;
4980;SDS011;2507;50.392;7.482;2023-06-19T03:03:59;9.90;;;9.10;;
4980;SDS011;2507;50.392;7.482;2023-06-19T03:06:25;9.37;;;8.67;;
4980;SDS011;2507;50.392;7.482;2023-06-19T03:08:51;9.63;;;8.83;;
4980;SDS011;2507;50.392;7.482;2023-06-19T03:11:16;10.30;;;9.40;;
4980;SDS011;2507;50.392;7.482;2023-06-19T03:13:46;8.70;;;8.00;;
4980;SDS011;2507;50.392;7.482;2023-06-19T03:16:11;15.93;;;9.93;;
4980;SDS011;2507;50.392;7.482;2023-06-19T03:18:37;10.20;;;9.20;;
4980;SDS011;2507;50.392;7.482;2023-06-19T03:21:02;9.93;;;9.03;;
4980;SDS011;2507;50.392;7.482;2023-06-19T03:23:28;8.63;;;8.03;;
4980;SDS011;2507;50.392;7.482;2023-06-19T03:25:53;10.13;;;9.23;;
4980;SDS011;2507;50.392;7.482;2023-06-19T03:28:18;10.27;;;9.33;;
4980;SDS011;2507;50.392;7.482;2023-06-19T03:30:44;9.60;;;8.70;;
4980;SDS011;2507;50.392;7.482;2023-06-19T03:33:09;9.60;;;8.40;;
4980;SDS011;2507;50.392;7.482;2023-06-19T03:35:34;9.07;;;8.17;;
4980;SDS011;2507;50.392;7.482;2023-06-19T03:37:59;8.37;;;7.67;;
4980;SDS011;2507;50.392;7.482;2023-06-19T03:40:25;7.97;;;7.37;;
4980;SDS011;2507;50.392;7.482;2023-06-19T03:42:50;7.70;;;7.10;;
4980;SDS011;2507;50.392;7.482;2023-06-19T03:45:15;8.20;;;7.50;;
4980;SDS011;2507;50.392;7.482;2023-06-19T03:47:41;10.40;;;7.80;;
4980;SDS011;2507;50.392;7.482;2023-06-19T03:50:06;7.40;;;6.90;;
4980;SDS011;2507;50.392;7.482;2023-06-19T03:52:35;7.70;;;7.07;;
4980;SDS011;2507;50.392;7.482;2023-06-19T03:55:02;8.83;;;8.03;;
4980;SDS011;2507;50.392;7.482;2023-06-19T03:57:27;8.13;;;7.53;;
4980;SDS011;2507;50.392;7.482;2023-06-19T03:59:53;8.17;;;7.57;;
4980;SDS011;2507;50.392;7.482;2023-06-19T04:02:18;7.60;;;6.97;;
4980;SDS011;2507;50.392;7.482;2023-06-19T04:04:44;11.10;;;7.10;;
4980;SDS011;2507;50.392;7.482;2023-06-19T04:07:09;7.20;;;6.70;;
4980;SDS011;2507;50.392;7.482;2023-06-19T04:09:35;7.30;;;6.80;;
4980;SDS011;2507;50.392;7.482;2023-06-19T04:12:00;7.10;;;6.50;;
4980;SDS011;2507;50.392;7.482;2023-06-19T04:14:25;6.33;;;5.93;;
4980;SDS011;2507;50.392;7.482;2023-06-19T04:16:51;6.53;;;5.80;;
4980;SDS011;2507;50.392;7.482;2023-06-19T04:19:16;9.20;;;5.53;;
4980;SDS011;2507;50.392;7.482;2023-06-19T04:21:41;6.83;;;6.23;;
4980;SDS011;2507;50.392;7.482;2023-06-19T04:24:06;10.00;;;5.50;;
4980;SDS011;2507;50.392;7.482;2023-06-19T04:26:34;6.37;;;5.30;;
4980;SDS011;2507;50.392;7.482;2023-06-19T04:29:00;7.77;;;5.33;;
4980;SDS011;2507;50.392;7.482;2023-06-19T04:31:26;6.00;;;5.50;;
4980;SDS011;2507;50.392;7.482;2023-06-19T04:33:51;5.60;;;5.20;;
4980;SDS011;2507;50.392;7.482;2023-06-19T04:36:17;5.23;;;4.90;;
4980;SDS011;2507;50.392;7.482;2023-06-19T04:38:42;4.97;;;4.57;;
4980;SDS011;2507;50.392;7.482;2023-06-19T04:41:10;5.03;;;4.73;;
4980;SDS011;2507;50.392;7.482;2023-06-19T04:43:35;11.40;;;4.43;;
4980;SDS011;2507;50.392;7.482;2023-06-19T04:46:00;7.97;;;4.90;;
4980;SDS011;2507;50.392;7.482;2023-06-19T04:48:28;16.80;;;5.10;;
4980;SDS011;2507;50.392;7.482;2023-06-19T04:50:54;13.03;;;4.97;;
4980;SDS011;2507;50.392;7.482;2023-06-19T04:53:21;10.23;;;4.50;;
4980;SDS011;2507;50.392;7.482;2023-06-19T04:55:46;10.80;;;4.53;;
4980;SDS011;2507;50.392;7.482;2023-06-19T04:58:11;5.60;;;4.83;;
4980;SDS011;2507;50.392;7.482;2023-06-19T05:00:37;4.97;;;4.50;;
4980;SDS011;2507;50.392;7.482;2023-06-19T05:03:02;9.67;;;5.30;;
4980;SDS011;2507;50.392;7.482;2023-06-19T05:05:28;8.27;;;5.37;;
4980;SDS011;2507;50.392;7.482;2023-06-19T05:07:53;6.13;;;5.63;;
4980;SDS011;2507;50.392;7.482;2023-06-19T05:10:18;4.50;;;4.30;;
4980;SDS011;2507;50.392;7.482;2023-06-19T05:12:44;5.30;;;5.00;;
4980;SDS011;2507;50.392;7.482;2023-06-19T05:15:09;7.40;;;5.30;;
4980;SDS011;2507;50.392;7.482;2023-06-19T05:17:35;7.90;;;5.53;;
4980;SDS011;2507;50.392;7.482;2023-06-19T05:20:03;5.10;;;4.70;;
4980;SDS011;2507;50.392;7.482;2023-06-19T05:22:32;6.80;;;5.43;;
4980;SDS011;2507;50.392;7.482;2023-06-19T05:24:59;5.47;;;5.03;;
4980;SDS011;2507;50.392;7.482;2023-06-19T05:27:25;6.57;;;4.93;;
4980;SDS011;2507;50.392;7.482;2023-06-19T05:29:50;5.13;;;4.70;;
4980;SDS011;2507;50.392;7.482;2023-06-19T05:32:15;5.00;;;4.70;;
4980;SDS011;2507;50.392;7.482;2023-06-19T05:34:41;4.60;;;4.30;;
4980;SDS011;2507;50.392;7.482;2023-06-19T05:37:06;5.63;;;4.90;;
4980;SDS011;2507;50.392;7.482;2023-06-19T05:39:32;7.03;;;4.20;;
4980;SDS011;2507;50.392;7.482;2023-06-19T05:41:57;5.20;;;4.87;;
4980;SDS011;2507;50.392;7.482;2023-06-19T05:44:22;5.63;;;4.50;;
4980;SDS011;2507;50.392;7.482;2023-06-19T05:46:48;4.77;;;4.17;;
4980;SDS011;2507;50.392;7.482;2023-06-19T05:49:13;8.50;;;4.10;;
4980;SDS011;2507;50.392;7.482;2023-06-19T05:51:38;7.07;;;5.40;;
4980;SDS011;2507;50.392;7.482;2023-06-19T05:54:03;5.40;;;5.00;;
4980;SDS011;2507;50.392;7.482;2023-06-19T05:56:30;12.37;;;5.20;;
4980;SDS011;2507;50.392;7.482;2023-06-19T05:58:57;7.90;;;5.10;;
4980;SDS011;2507;50.392;7.482;2023-06-19T06:01:23;5.73;;;5.23;;
4980;SDS011;2507;50.392;7.482;2023-06-19T06:03:49;6.43;;;5.37;;
4980;SDS011;2507;50.392;7.482;2023-06-19T06:06:14;10.17;;;5.30;;
4980;SDS011;2507;50.392;7.482;2023-06-19T06:08:39;6.20;;;5.30;;
4980;SDS011;2507;50.392;7.482;2023-06-19T06:11:05;18.97;;;5.90;;
4980;SDS011;2507;50.392;7.482;2023-06-19T06:13:30;13.43;;;5.67;;
4980;SDS011;2507;50.392;7.482;2023-06-19T06:15:56;6.30;;;5.43;;
4980;SDS011;2507;50.392;7.482;2023-06-19T06:18:21;13.23;;;5.10;;
4980;SDS011;2507;50.392;7.482;2023-06-19T06:20:47;4.70;;;4.40;;
4980;SDS011;2507;50.392;7.482;2023-06-19T06:23:12;10.37;;;4.90;;
4980;SDS011;2507;50.392;7.482;2023-06-19T06:25:37;5.77;;;5.17;;
4980;SDS011;2507;50.392;7.482;2023-06-19T06:28:03;14.23;;;5.43;;
4980;SDS011;2507;50.392;7.482;2023-06-19T06:30:28;9.47;;;4.53;;
4980;SDS011;2507;50.392;7.482;2023-06-19T06:32:54;4.83;;;4.23;;
4980;SDS011;2507;50.392;7.482;2023-06-19T06:35:19;6.43;;;4.37;;
4980;SDS011;2507;50.392;7.482;2023-06-19T06:37:44;4.73;;;4.43;;
4980;SDS011;2507;50.392;7.482;2023-06-19T06:40:11;5.40;;;4.63;;
4980;SDS011;2507;50.392;7.482;2023-06-19T06:42:37;4.63;;;3.60;;
4980;SDS011;2507;50.392;7.482;2023-06-19T06:45:06;6.80;;;3.70;;
4980;SDS011;2507;50.392;7.482;2023-06-19T06:47:32;4.30;;;3.90;;
4980;SDS011;2507;50.392;7.482;2023-06-19T06:49:59;10.30;;;3.80;;
4980;SDS011;2507;50.392;7.482;2023-06-19T06:52:24;5.70;;;3.80;;
4980;SDS011;2507;50.392;7.482;2023-06-19T06:54:49;20.93;;;3.97;;
4980;SDS011;2507;50.392;7.482;2023-06-19T06:57:15;3.27;;;2.90;;
4980;SDS011;2507;50.392;7.482;2023-06-19T06:59:41;6.00;;;3.47;;
4980;SDS011;2507;50.392;7.482;2023-06-19T07:02:06;3.10;;;2.80;;
4980;SDS011;2507;50.392;7.482;2023-06-19T07:04:31;4.40;;;3.13;;
4980;SDS011;2507;50.392;7.482;2023-06-19T07:06:57;4.33;;;3.07;;
4980;SDS011;2507;50.392;7.482;2023-06-19T07:09:23;6.27;;;3.40;;
4980;SDS011;2507;50.392;7.482;2023-06-19T07:11:48;3.30;;;3.10;;
4980;SDS011;2507;50.392;7.482;2023-06-19T07:14:14;3.30;;;3.10;;
4980;SDS011;2507;50.392;7.482;2023-06-19T07:16:42;3.23;;;2.93;;
4980;SDS011;2507;50.392;7.482;2023-06-19T07:19:08;4.97;;;3.37;;
4980;SDS011;2507;50.392;7.482;2023-06-19T07:21:34;3.80;;;2.90;;
4980;SDS011;2507;50.392;7.482;2023-06-19T07:23:59;9.30;;;3.47;;
4980;SDS011;2507;50.392;7.482;2023-06-19T07:26:25;3.63;;;3.43;;
4980;SDS011;2507;50.392;7.482;2023-06-19T07:28:51;8.37;;;3.10;;
4980;SDS011;2507;50.392;7.482;2023-06-19T07:31:16;4.53;;;2.70;;
4980;SDS011;2507;50.392;7.482;2023-06-19T07:33:41;5.00;;;2.90;;
4980;SDS011;2507;50.392;7.482;2023-06-19T07:36:06;2.50;;;2.30;;
4980;SDS011;2507;50.392;7.482;2023-06-19T07:38:33;5.33;;;2.40;;
4980;SDS011;2507;50.392;7.482;2023-06-19T07:40:58;2.63;;;2.43;;
4980;SDS011;2507;50.392;7.482;2023-06-19T07:43:23;3.00;;;2.53;;
4980;SDS011;2507;50.392;7.482;2023-06-19T07:45:49;5.30;;;2.57;;
4980;SDS011;2507;50.392;7.482;2023-06-19T07:48:15;5.77;;;2.97;;
4980;SDS011;2507;50.392;7.482;2023-06-19T07:50:40;2.70;;;2.27;;
4980;SDS011;2507;50.392;7.482;2023-06-19T07:53:06;3.13;;;2.53;;
4980;SDS011;2507;50.392;7.482;2023-06-19T07:55:31;3.03;;;2.13;;
4980;SDS011;2507;50.392;7.482;2023-06-19T07:57:57;5.80;;;2.00;;
4980;SDS011;2507;50.392;7.482;2023-06-19T08:00:23;2.90;;;2.70;;
4980;SDS011;2507;50.392;7.482;2023-06-19T08:02:49;2.60;;;2.40;;
4980;SDS011;2507;50.392;7.482;2023-06-19T08:05:15;2.47;;;2.27;;
4980;SDS011;2507;50.392;7.482;2023-06-19T08:07:40;14.30;;;3.00;;
4980;SDS011;2507;50.392;7.482;2023-06-19T08:10:06;2.40;;;2.20;;
4980;SDS011;2507;50.392;7.482;2023-06-19T08:12:32;3.80;;;2.23;;
4980;SDS011;2507;50.392;7.482;2023-06-19T08:14:58;7.17;;;2.20;;
4980;SDS011;2507;50.392;7.482;2023-06-19T08:17:23;5.93;;;2.10;;
4980;SDS011;2507;50.392;7.482;2023-06-19T08:19:49;2.77;;;2.57;;
4980;SDS011;2507;50.392;7.482;2023-06-19T08:22:14;4.00;;;2.47;;
4980;SDS011;2507;50.392;7.482;2023-06-19T08:24:40;2.30;;;2.10;;
4980;SDS011;2507;50.392;7.482;2023-06-19T08:27:06;3.70;;;2.20;;
4980;SDS011;2507;50.392;7.482;2023-06-19T08:29:31;3.33;;;2.33;;
4980;SDS011;2507;50.392;7.482;2023-06-19T08:31:57;2.17;;;1.30;;
4980;SDS011;2507;50.392;7.482;2023-06-19T08:34:22;3.37;;;1.90;;
4980;SDS011;2507;50.392;7.482;2023-06-19T08:36:48;5.70;;;2.07;;
4980;SDS011;2507;50.392;7.482;2023-06-19T08:39:13;5.03;;;2.37;;
4980;SDS011;2507;50.392;7.482;2023-06-19T08:41:39;6.87;;;2.30;;
4980;SDS011;2507;50.392;7.482;2023-06-19T08:44:06;2.90;;;2.00;;
4980;SDS011;2507;50.392;7.482;2023-06-19T08:46:32;3.33;;;1.90;;
4980;SDS011;2507;50.392;7.482;2023-06-19T08:48:59;3.03;;;2.00;;
4980;SDS011;2507;50.392;7.482;2023-06-19T08:51:26;4.77;;;2.00;;
4980;SDS011;2507;50.392;7.482;2023-06-19T08:53:55;8.67;;;2.30;;
4980;SDS011;2507;50.392;7.482;2023-06-19T08:56:22;2.73;;;2.20;;
4980;SDS011;2507;50.392;7.482;2023-06-19T08:58:47;2.70;;;2.20;;
4980;SDS011;2507;50.392;7.482;2023-06-19T09:01:21;3.23;;;1.90;;
4980;SDS011;2507;50.392;7.482;2023-06-19T09:03:51;3.00;;;1.97;;
4980;SDS011;2507;50.392;7.482;2023-06-19T09:06:18;2.10;;;2.00;;
4980;SDS011;2507;50.392;7.482;2023-06-19T09:08:43;3.37;;;2.20;;
4980;SDS011;2507;50.392;7.482;2023-06-19T09:11:09;2.13;;;1.90;;
4980;SDS011;2507;50.392;7.482;2023-06-19T09:13:35;2.37;;;2.27;;
4980;SDS011;2507;50.392;7.482;2023-06-19T09:16:02;3.47;;;2.50;;
4980;SDS011;2507;50.392;7.482;2023-06-19T09:18:41;2.63;;;2.23;;
4980;SDS011;2507;50.392;7.482;2023-06-19T09:21:17;2.40;;;2.30;;
4980;SDS011;2507;50.392;7.482;2023-06-19T09:23:43;2.27;;;1.97;;
4980;SDS011;2507;50.392;7.482;2023-06-19T09:26:08;5.50;;;2.20;;
4980;SDS011;2507;50.392;7.482;2023-06-19T09:28:39;4.77;;;2.17;;
4980;SDS011;2507;50.392;7.482;2023-06-19T09:31:07;3.17;;;2.20;;
4980;SDS011;2507;50.392;7.482;2023-06-19T09:33:33;2.00;;;1.90;;
4980;SDS011;2507;50.392;7.482;2023-06-19T09:36:01;7.00;;;2.77;;
4980;SDS011;2507;50.392;7.482;2023-06-19T09:38:28;2.13;;;2.03;;
4980;SDS011;2507;50.392;7.482;2023-06-19T09:40:55;7.53;;;2.50;;
4980;SDS011;2507;50.392;7.482;2023-06-19T09:43:30;8.50;;;2.40;;
4980;SDS011;2507;50.392;7.482;2023-06-19T09:46:11;2.53;;;2.43;;
4980;SDS011;2507;50.392;7.482;2023-06-19T09:48:41;2.40;;;1.97;;
4980;SDS011;2507;50.392;7.482;2023-06-19T09:53:32;2.23;;;2.13;;
4980;SDS011;2507;50.392;7.482;2023-06-19T09:55:59;2.70;;;2.30;;
4980;SDS011;2507;50.392;7.482;2023-06-19T09:58:25;3.10;;;2.90;;
4980;SDS011;2507;50.392;7.482;2023-06-19T10:00:52;2.70;;;2.50;;
4980;SDS011;2507;50.392;7.482;2023-06-19T10:03:18;3.53;;;2.20;;
4980;SDS011;2507;50.392;7.482;2023-06-19T10:05:43;2.30;;;2.20;;
4980;SDS011;2507;50.392;7.482;2023-06-19T10:08:09;4.37;;;2.33;;
4980;SDS011;2507;50.392;7.482;2023-06-19T10:10:35;4.30;;;2.20;;
4980;SDS011;2507;50.392;7.482;2023-06-19T10:13:11;2.30;;;2.20;;
4980;SDS011;2507;50.392;7.482;2023-06-19T10:15:40;2.73;;;2.63;;
4980;SDS011;2507;50.392;7.482;2023-06-19T10:18:13;2.43;;;2.23;;
4980;SDS011;2507;50.392;7.482;2023-06-19T10:20:44;3.30;;;2.90;;
4980;SDS011;2507;50.392;7.482;2023-06-19T10:25:42;3.33;;;2.40;;
4980;SDS011;2507;50.392;7.482;2023-06-19T10:30:43;2.50;;;2.40;;
4980;SDS011;2507;50.392;7.482;2023-06-19T10:33:08;6.53;;;2.40;;
4980;SDS011;2507;50.392;7.482;2023-06-19T10:35:37;2.60;;;2.50;;
4980;SDS011;2507;50.392;7.482;2023-06-19T10:38:07;3.67;;;3.00;;
4980;SDS011;2507;50.392;7.482;2023-06-19T10:40:33;4.20;;;2.20;;
4980;SDS011;2507;50.392;7.482;2023-06-19T10:43:00;2.63;;;2.17;;
4980;SDS011;2507;50.392;7.482;2023-06-19T10:45:25;9.27;;;2.20;;
4980;SDS011;2507;50.392;7.482;2023-06-19T10:47:53;1.67;;;1.67;;
4980;SDS011;2507;50.392;7.482;2023-06-19T10:50:19;3.13;;;2.00;;
4980;SDS011;2507;50.392;7.482;2023-06-19T10:52:45;2.20;;;2.10;;
4980;SDS011;2507;50.392;7.482;2023-06-19T10:55:11;2.83;;;2.63;;
4980;SDS011;2507;50.392;7.482;2023-06-19T10:57:37;3.20;;;2.00;;
4980;SDS011;2507;50.392;7.482;2023-06-19T11:00:04;2.07;;;1.87;;
4980;SDS011;2507;50.392;7.482;2023-06-19T11:02:38;2.20;;;1.90;;
4980;SDS011;2507;50.392;7.482;2023-06-19T11:05:06;4.57;;;2.37;;
4980;SDS011;2507;50.392;7.482;2023-06-19T11:07:31;4.33;;;2.80;;
4980;SDS011;2507;50.392;7.482;2023-06-19T11:09:57;3.23;;;2.37;;
4980;SDS011;2507;50.392;7.482;2023-06-19T11:12:22;2.10;;;1.97;;
4980;SDS011;2507;50.392;7.482;2023-06-19T11:14:48;1.87;;;1.70;;
4980;SDS011;2507;50.392;7.482;2023-06-19T11:17:14;1.93;;;1.83;;
4980;SDS011;2507;50.392;7.482;2023-06-19T11:19:39;3.33;;;1.90;;
4980;SDS011;2507;50.392;7.482;2023-06-19T11:22:07;4.10;;;2.20;;
4980;SDS011;2507;50.392;7.482;2023-06-19T11:24:32;2.60;;;2.40;;
4980;SDS011;2507;50.392;7.482;2023-06-19T11:26:58;3.30;;;2.43;;
4980;SDS011;2507;50.392;7.482;2023-06-19T11:29:30;2.30;;;2.10;;
4980;SDS011;2507;50.392;7.482;2023-06-19T11:32:07;3.03;;;2.37;;
4980;SDS011;2507;50.392;7.482;2023-06-19T11:34:38;2.33;;;2.13;;
4980;SDS011;2507;50.392;7.482;2023-06-19T11:37:17;3.10;;;2.43;;
4980;SDS011;2507;50.392;7.482;2023-06-19T11:39:43;10.13;;;2.00;;
4980;SDS011;2507;50.392;7.482;2023-06-19T11:42:09;3.33;;;2.70;;
4980;SDS011;2507;50.392;7.482;2023-06-19T11:44:34;4.33;;;2.50;;
4980;SDS011;2507;50.392;7.482;2023-06-19T11:47:00;4.43;;;2.57;;
4980;SDS011;2507;50.392;7.482;2023-06-19T11:49:27;3.23;;;3.03;;
4980;SDS011;2507;50.392;7.482;2023-06-19T11:51:57;1.90;;;1.80;;
4980;SDS011;2507;50.392;7.482;2023-06-19T11:54:22;2.30;;;2.20;;
4980;SDS011;2507;50.392;7.482;2023-06-19T11:56:48;2.10;;;2.00;;
4980;SDS011;2507;50.392;7.482;2023-06-19T11:59:13;2.93;;;1.90;;
4980;SDS011;2507;50.392;7.482;2023-06-19T12:01:39;3.10;;;2.33;;
4980;SDS011;2507;50.392;7.482;2023-06-19T12:04:04;5.00;;;2.30;;
4980;SDS011;2507;50.392;7.482;2023-06-19T12:06:30;2.63;;;2.30;;
4980;SDS011;2507;50.392;7.482;2023-06-19T12:08:55;3.03;;;2.83;;
4980;SDS011;2507;50.392;7.482;2023-06-19T12:11:21;2.63;;;2.27;;
4980;SDS011;2507;50.392;7.482;2023-06-19T12:13:46;3.57;;;1.87;;
4980;SDS011;2507;50.392;7.482;2023-06-19T12:16:12;2.20;;;2.10;;
4980;SDS011;2507;50.392;7.482;2023-06-19T12:18:38;2.40;;;2.20;;
4980;SDS011;2507;50.392;7.482;2023-06-19T12:21:03;4.27;;;2.13;;
4980;SDS011;2507;50.392;7.482;2023-06-19T12:23:29;2.13;;;2.03;;
4980;SDS011;2507;50.392;7.482;2023-06-19T12:25:54;2.67;;;2.53;;
4980;SDS011;2507;50.392;7.482;2023-06-19T12:28:20;4.30;;;2.40;;
4980;SDS011;2507;50.392;7.482;2023-06-19T12:30:46;2.60;;;2.50;;
4980;SDS011;2507;50.392;7.482;2023-06-19T12:33:13;5.70;;;2.77;;
4980;SDS011;2507;50.392;7.482;2023-06-19T12:35:39;10.90;;;2.40;;
4980;SDS011;2507;50.392;7.482;2023-06-19T12:38:05;3.07;;;2.63;;
4980;SDS011;2507;50.392;7.482;2023-06-19T12:40:31;3.20;;;2.50;;
4980;SDS011;2507;50.392;7.482;2023-06-19T12:42:57;2.20;;;2.10;;
4980;SDS011;2507;50.392;7.482;2023-06-19T12:45:22;2.47;;;2.27;;
4980;SDS011;2507;50.392;7.482;2023-06-19T12:47:47;1.80;;;1.80;;
4980;SDS011;2507;50.392;7.482;2023-06-19T12:50:13;4.73;;;2.00;;
4980;SDS011;2507;50.392;7.482;2023-06-19T12:52:38;2.23;;;2.13;;
4980;SDS011;2507;50.392;7.482;2023-06-19T12:55:03;3.33;;;2.00;;
4980;SDS011;2507;50.392;7.482;2023-06-19T12:57:29;2.43;;;2.33;;
4980;SDS011;2507;50.392;7.482;2023-06-19T12:59:54;1.90;;;1.80;;
4980;SDS011;2507;50.392;7.482;2023-06-19T13:02:19;1.73;;;1.70;;
4980;SDS011;2507;50.392;7.482;2023-06-19T13:04:45;2.80;;;2.60;;
4980;SDS011;2507;50.392;7.482;2023-06-19T13:07:10;2.17;;;2.07;;
4980;SDS011;2507;50.392;7.482;2023-06-19T13:09:35;2.13;;;2.07;;
4980;SDS011;2507;50.392;7.482;2023-06-19T13:12:01;4.00;;;2.10;;
4980;SDS011;2507;50.392;7.482;2023-06-19T13:14:27;2.10;;;2.00;;
4980;SDS011;2507;50.392;7.482;2023-06-19T13:16:52;2.23;;;2.03;;
4980;SDS011;2507;50.392;7.482;2023-06-19T13:19:18;2.60;;;2.50;;
4980;SDS011;2507;50.392;7.482;2023-06-19T13:21:43;2.50;;;2.10;;
4980;SDS011;2507;50.392;7.482;2023-06-19T13:24:09;1.83;;;1.73;;
4980;SDS011;2507;50.392;7.482;2023-06-19T13:26:34;2.10;;;2.00;;
4980;SDS011;2507;50.392;7.482;2023-06-19T13:29:00;2.43;;;2.23;;
4980;SDS011;2507;50.392;7.482;2023-06-19T13:31:26;3.23;;;2.30;;
4980;SDS011;2507;50.392;7.482;2023-06-19T13:33:51;2.00;;;2.00;;
4980;SDS011;2507;50.392;7.482;2023-06-19T13:36:16;2.40;;;2.30;;
4980;SDS011;2507;50.392;7.482;2023-06-19T13:38:43;3.43;;;2.50;;
4980;SDS011;2507;50.392;7.482;2023-06-19T13:41:09;2.57;;;2.47;;
4980;SDS011;2507;50.392;7.482;2023-06-19T13:43:34;1.93;;;1.90;;
4980;SDS011;2507;50.392;7.482;2023-06-19T13:45:59;2.37;;;2.27;;
4980;SDS011;2507;50.392;7.482;2023-06-19T13:48:25;2.10;;;1.80;;
4980;SDS011;2507;50.392;7.482;2023-06-19T13:50:51;1.90;;;1.80;;
4980;SDS011;2507;50.392;7.482;2023-06-19T13:53:16;2.00;;;1.90;;
4980;SDS011;2507;50.392;7.482;2023-06-19T13:55:41;2.23;;;1.97;;
4980;SDS011;2507;50.392;7.482;2023-06-19T13:58:07;2.30;;;2.20;;
4980;SDS011;2507;50.392;7.482;2023-06-19T14:00:32;1.97;;;1.87;;
4980;SDS011;2507;50.392;7.482;2023-06-19T14:02:57;2.13;;;2.03;;
4980;SDS011;2507;50.392;7.482;2023-06-19T14:05:22;1.97;;;1.87;;
4980;SDS011;2507;50.392;7.482;2023-06-19T14:07:48;1.97;;;1.87;;
4980;SDS011;2507;50.392;7.482;2023-06-19T14:10:13;2.10;;;1.70;;
4980;SDS011;2507;50.392;7.482;2023-06-19T14:12:38;2.40;;;2.20;;
4980;SDS011;2507;50.392;7.482;2023-06-19T14:15:05;2.23;;;2.13;;
4980;SDS011;2507;50.392;7.482;2023-06-19T14:17:31;2.03;;;1.93;;
4980;SDS011;2507;50.392;7.482;2023-06-19T14:19:57;2.20;;;2.10;;
4980;SDS011;2507;50.392;7.482;2023-06-19T14:22:22;2.03;;;1.93;;
4980;SDS011;2507;50.392;7.482;2023-06-19T14:24:48;2.03;;;1.93;;
4980;SDS011;2507;50.392;7.482;2023-06-19T14:27:14;2.00;;;1.90;;
4980;SDS011;2507;50.392;7.482;2023-06-19T14:29:39;1.83;;;1.73;;
4980;SDS011;2507;50.392;7.482;2023-06-19T14:32:05;2.30;;;2.10;;
4980;SDS011;2507;50.392;7.482;2023-06-19T14:34:30;1.80;;;1.80;;
4980;SDS011;2507;50.392;7.482;2023-06-19T14:36:55;1.50;;;1.40;;
4980;SDS011;2507;50.392;7.482;2023-06-19T14:39:21;2.13;;;2.03;;
4980;SDS011;2507;50.392;7.482;2023-06-19T14:41:46;15.77;;;2.50;;
4980;SDS011;2507;50.392;7.482;2023-06-19T14:44:11;1.87;;;1.87;;
4980;SDS011;2507;50.392;7.482;2023-06-19T14:46:37;2.30;;;2.17;;
4980;SDS011;2507;50.392;7.482;2023-06-19T14:49:06;2.30;;;2.20;;
4980;SDS011;2507;50.392;7.482;2023-06-19T14:51:33;5.50;;;2.10;;
4980;SDS011;2507;50.392;7.482;2023-06-19T14:53:58;3.27;;;1.90;;
4980;SDS011;2507;50.392;7.482;2023-06-19T14:56:23;2.67;;;2.03;;
4980;SDS011;2507;50.392;7.482;2023-06-19T14:58:49;2.10;;;1.90;;
4980;SDS011;2507;50.392;7.482;2023-06-19T15:01:14;3.90;;;2.40;;
4980;SDS011;2507;50.392;7.482;2023-06-19T15:03:41;2.07;;;1.97;;
4980;SDS011;2507;50.392;7.482;2023-06-19T15:06:07;1.87;;;1.77;;
4980;SDS011;2507;50.392;7.482;2023-06-19T15:08:32;1.97;;;1.97;;
4980;SDS011;2507;50.392;7.482;2023-06-19T15:10:59;1.93;;;1.83;;
4980;SDS011;2507;50.392;7.482;2023-06-19T15:13:24;2.37;;;2.27;;
4980;SDS011;2507;50.392;7.482;2023-06-19T15:15:50;2.00;;;2.00;;